Time;durP1;ratioP1;P1;durP2;ratioP2;P2;SDS_P1;SDS_P2;PMS_P1;PMS_P2;Temp;Humidity;BMP_temperature;BMP_pressure;BME280_temperature;BME280_humidity;BME280_pressure;Samples;Min_cycle;Max_cycle;Signal;HPM_P1;HPM_P2
2021/05/07 00:00:59;;;;;;;0.98;0.80;;;13.70;67.90;;;;;;5033421;28;20047;-93
2021/05/07 00:03:25;;;;;;;1.45;0.70;;;;;;;;;;5034243;28;20045;-93
2021/05/07 00:05:55;;;;;;;1.80;0.90;;;;;;;;;;5026647;28;20542;-93
2021/05/07 00:08:30;;;;;;;4.03;3.25;;;13.70;68.80;;;;;;5026629;28;20025;-94
2021/05/07 00:10:57;;;;;;;1.55;1.00;;;13.60;67.50;;;;;;5032210;28;20038;-93
2021/05/07 00:13:23;;;;;;;1.20;0.93;;;;;;;;;;5034166;28;20014;-93
2021/05/07 00:15:49;;;;;;;4.45;2.85;;;;;;;;;;5034231;28;20033;-95
2021/05/07 00:18:16;;;;;;;2.38;1.15;;;;;;;;;;5032038;28;20047;-94
2021/05/07 00:20:42;;;;;;;1.38;0.90;;;;;;;;;;5037725;28;20107;-93
2021/05/07 00:23:08;;;;;;;1.92;1.13;;;;;;;;;;5034122;28;20052;-94
2021/05/07 00:25:34;;;;;;;1.42;0.90;;;;;;;;;;5028867;28;20042;-93
2021/05/07 00:28:05;;;;;;;1.40;0.88;;;13.50;67.50;;;;;;5013465;28;20046;-94
2021/05/07 00:30:31;;;;;;;0.88;0.60;;;;;;;;;;5032730;28;20068;-96
2021/05/07 00:32:57;;;;;;;4.05;1.30;;;;;;;;;;5031694;28;20033;-93
2021/05/07 00:35:24;;;;;;;1.88;1.27;;;13.30;68.90;;;;;;5026006;28;20029;-93
2021/05/07 00:37:50;;;;;;;2.83;0.88;;;;;;;;;;5044390;28;20033;-93
2021/05/07 00:40:16;;;;;;;1.00;0.80;;;;;;;;;;5031297;28;20069;-95
2021/05/07 00:42:43;;;;;;;2.65;1.38;;;;;;;;;;5033844;28;20445;-94
2021/05/07 00:45:11;;;;;;;2.05;1.20;;;13.20;67.20;;;;;;5033387;28;20505;-93
2021/05/07 00:47:57;;;;;;;1.48;1.25;;;13.10;65.30;;;;;;5033495;28;20025;-93
2021/05/07 00:50:30;;;;;;;1.00;0.40;;;12.90;64.60;;;;;;5025349;28;20033;-95
2021/05/07 00:52:58;;;;;;;0.82;0.38;;;;;;;;;;5014070;28;20032;-95
2021/05/07 00:55:24;;;;;;;0.30;0.30;;;;;;;;;;5017685;28;20029;-94
2021/05/07 00:57:51;;;;;;;2.05;0.50;;;;;;;;;;5033051;28;20025;-93
2021/05/07 01:00:17;;;;;;;3.88;0.90;;;;;;;;;;5033092;28;20483;-94
2021/05/07 01:02:43;;;;;;;0.98;0.60;;;;;;;;;;5036616;28;20044;-95
2021/05/07 01:05:09;;;;;;;0.60;0.50;;;;;;;;;;5033307;28;20029;-94
2021/05/07 01:07:35;;;;;;;4.60;0.80;;;;;;;;;;5030694;28;20052;-94
2021/05/07 01:10:10;;;;;;;1.35;0.65;;;13.20;65.90;;;;;;5030215;28;20109;-94
2021/05/07 01:12:37;;;;;;;0.77;0.45;;;13.30;66.50;;;;;;5013531;28;20030;-94
2021/05/07 01:15:08;;;;;;;3.43;0.57;;;;;;;;;;5026530;28;20593;-94
2021/05/07 01:17:39;;;;;;;1.42;1.13;;;13.10;65.00;;;;;;5013055;28;20269;-94
2021/05/07 01:20:08;;;;;;;0.88;0.40;;;;;;;;;;5023055;28;20387;-94
2021/05/07 01:22:34;;;;;;;0.55;0.52;;;;;;;;;;5031319;28;20037;-94
2021/05/07 01:25:00;;;;;;;2.10;0.50;;;13.10;63.90;;;;;;5033009;28;20470;-94
2021/05/07 01:27:26;;;;;;;5.07;1.85;;;;;;;;;;5022663;28;20490;-93
2021/05/07 01:29:52;;;;;;;0.90;0.40;;;;;;;;;;5018082;28;20037;-95
2021/05/07 01:32:18;;;;;;;0.50;0.50;;;;;;;;;;5028438;28;20113;-93
2021/05/07 01:34:44;;;;;;;1.60;0.70;;;;;;;;;;5031472;28;20108;-93
2021/05/07 01:37:10;;;;;;;1.23;0.90;;;;;;;;;;5032762;28;20033;-94
2021/05/07 01:39:36;;;;;;;1.63;0.98;;;;;;;;;;5031768;28;20021;-93
2021/05/07 01:42:02;;;;;;;0.73;0.40;;;;;;;;;;5032832;28;20045;-94
2021/05/07 01:44:29;;;;;;;1.70;0.60;;;;;;;;;;5032671;28;20792;-93
2021/05/07 01:46:55;;;;;;;1.45;0.90;;;;;;;;;;5033203;28;20030;-94
2021/05/07 01:49:21;;;;;;;0.60;0.60;;;;;;;;;;5017024;28;20032;-94
2021/05/07 01:51:47;;;;;;;2.92;0.98;;;;;;;;;;5031874;28;20124;-94
2021/05/07 01:54:13;;;;;;;0.63;0.63;;;;;;;;;;5022140;28;20032;-93
2021/05/07 01:56:39;;;;;;;0.50;0.50;;;;;;;;;;5025509;28;20034;-94
2021/05/07 01:59:05;;;;;;;2.85;0.55;;;;;;;;;;5032377;28;20021;-93
2021/05/07 02:01:31;;;;;;;4.32;0.88;;;;;;;;;;5032897;28;20643;-93
2021/05/07 02:03:57;;;;;;;0.40;0.30;;;;;;;;;;5032947;28;20030;-95
2021/05/07 02:06:23;;;;;;;0.50;0.40;;;;;;;;;;5032889;28;20113;-94
2021/05/07 02:08:48;;;;;;;0.85;0.50;;;;;;;;;;5031041;28;20371;-94
2021/05/07 02:11:14;;;;;;;0.43;0.43;;;;;;;;;;5030457;28;20030;-93
2021/05/07 02:13:40;;;;;;;3.83;0.95;;;;;;;;;;5044229;28;20155;-95
2021/05/07 02:16:06;;;;;;;0.30;0.30;;;;;;;;;;5040525;28;20033;-94
2021/05/07 02:18:33;;;;;;;0.40;0.40;;;;;;;;;;5032338;28;20025;-93
2021/05/07 02:20:59;;;;;;;0.73;0.43;;;;;;;;;;5034903;28;20037;-95
2021/05/07 02:23:25;;;;;;;0.95;0.73;;;;;;;;;;5027305;28;20021;-94
2021/05/07 02:25:51;;;;;;;0.57;0.57;;;;;;;;;;5036305;28;20094;-94
2021/05/07 02:28:17;;;;;;;0.68;0.68;;;;;;;;;;5035949;28;20025;-94
2021/05/07 02:30:43;;;;;;;0.63;0.40;;;;;;;;;;5035604;28;20045;-94
2021/05/07 02:33:09;;;;;;;0.82;0.40;;;;;;;;;;5031532;28;20030;-94
2021/05/07 02:35:36;;;;;;;0.90;0.85;;;;;;;;;;5030164;28;20025;-93
2021/05/07 02:38:02;;;;;;;1.27;0.60;;;;;;;;;;5035674;28;20029;-93
2021/05/07 02:40:28;;;;;;;0.77;0.70;;;;;;;;;;5046669;28;20108;-95
2021/05/07 02:42:54;;;;;;;1.40;0.95;;;;;;;;;;5016456;28;20030;-93
2021/05/07 02:45:20;;;;;;;1.95;1.15;;;;;;;;;;5036043;28;20079;-94
2021/05/07 02:47:46;;;;;;;0.85;0.85;;;;;;;;;;5034809;28;20032;-94
2021/05/07 02:50:12;;;;;;;1.10;0.90;;;;;;;;;;5025356;28;20026;-95
2021/05/07 02:52:40;;;;;;;0.60;0.60;;;;;;;;;;5021122;28;20029;-93
2021/05/07 02:55:07;;;;;;;0.90;0.73;;;;;;;;;;5035420;28;20505;-93
2021/05/07 02:57:33;;;;;;;2.65;1.35;;;;;;;;;;5035982;28;20045;-94
2021/05/07 02:59:59;;;;;;;1.70;0.90;;;;;;;;;;5035116;28;20162;-94
2021/05/07 03:02:25;;;;;;;0.90;0.82;;;;;;;;;;5041393;28;20043;-94
2021/05/07 03:04:51;;;;;;;1.35;1.25;;;;;;;;;;5035626;28;20014;-93
2021/05/07 03:07:17;;;;;;;1.20;0.73;;;;;;;;;;5035464;28;20144;-94
2021/05/07 03:09:43;;;;;;;1.48;1.15;;;;;;;;;;5033996;28;20025;-93
2021/05/07 03:12:09;;;;;;;1.70;1.55;;;;;;;;;;5035187;28;20055;-95
2021/05/07 03:14:35;;;;;;;3.10;1.50;;;;;;;;;;5034997;28;21157;-94
2021/05/07 03:17:01;;;;;;;3.28;1.58;;;;;;;;;;5034393;28;20029;-94
2021/05/07 03:19:27;;;;;;;0.63;0.60;;;;;;;;;;5033038;28;20520;-94
2021/05/07 03:21:53;;;;;;;1.38;0.90;;;;;;;;;;5018155;28;20038;-94
2021/05/07 03:24:19;;;;;;;0.93;0.73;;;;;;;;;;5034561;28;20022;-95
2021/05/07 03:26:45;;;;;;;2.38;0.65;;;;;;;;;;5025315;28;20022;-93
2021/05/07 03:29:11;;;;;;;1.45;0.93;;;;;;;;;;5022047;28;20053;-92
2021/05/07 03:31:37;;;;;;;3.42;0.73;;;;;;;;;;5020507;28;20029;-94
2021/05/07 03:34:04;;;;;;;1.35;0.93;;;12.70;62.50;;;;;;5034939;28;20402;-94
2021/05/07 03:36:30;;;;;;;2.47;1.38;;;;;;;;;;5022227;28;20443;-94
2021/05/07 03:38:59;;;;;;;0.57;0.52;;;;;;;;;;5026996;28;20030;-93
2021/05/07 03:41:25;;;;;;;1.67;0.80;;;;;;;;;;5018913;28;20048;-93
2021/05/07 03:43:51;;;;;;;0.57;0.50;;;;;;;;;;5042134;28;20022;-93
2021/05/07 03:46:17;;;;;;;5.55;1.92;;;;;;;;;;5017311;28;20032;-93
2021/05/07 03:48:43;;;;;;;2.47;1.05;;;;;;;;;;5034686;28;20029;-93
2021/05/07 03:51:09;;;;;;;3.80;1.10;;;;;;;;;;5033142;28;20128;-92
2021/05/07 03:53:35;;;;;;;2.83;1.05;;;;;;;;;;5033113;28;20025;-94
2021/05/07 03:56:01;;;;;;;1.92;0.90;;;;;;;;;;5035146;28;20446;-94
2021/05/07 03:58:27;;;;;;;1.50;0.98;;;;;;;;;;5033843;28;20113;-94
2021/05/07 04:00:53;;;;;;;1.88;0.85;;;;;;;;;;5034854;28;20046;-94
2021/05/07 04:03:19;;;;;;;2.53;1.13;;;;;;;;;;5034182;28;20449;-94
2021/05/07 04:05:49;;;;;;;2.13;1.50;;;;;;;;;;5034037;28;20621;-94
2021/05/07 04:08:24;;;;;;;3.42;1.27;;;;;;;;;;5034055;28;20512;-93
2021/05/07 04:10:56;;;;;;;2.45;2.13;;;;;;;;;;5044904;28;20050;-94
2021/05/07 04:13:40;;;;;;;8.18;2.15;;;;;;;;;;5033894;28;20025;-94
2021/05/07 04:16:10;;;;;;;8.65;2.15;;;12.80;64.70;;;;;;5033870;28;20030;-94
2021/05/07 04:18:36;;;;;;;2.50;1.17;;;;;;;;;;5034336;28;20157;-93
2021/05/07 04:21:02;;;;;;;2.72;2.40;;;;;;;;;;5029390;28;20044;-92
2021/05/07 04:23:28;;;;;;;3.47;2.40;;;;;;;;;;5032676;28;20018;-93
2021/05/07 04:25:54;;;;;;;9.27;3.53;;;;;;;;;;5032427;28;20033;-95
2021/05/07 04:28:21;;;;;;;5.50;3.83;;;13.00;64.90;;;;;;5032334;28;20024;-94
2021/05/07 04:30:48;;;;;;;4.80;2.45;;;;;;;;;;5032009;28;20103;-94
2021/05/07 04:33:14;;;;;;;2.28;1.73;;;;;;;;;;5044927;28;20064;-95
2021/05/07 04:35:40;;;;;;;2.67;1.30;;;;;;;;;;5034225;28;20025;-95
2021/05/07 04:38:06;;;;;;;1.70;0.82;;;;;;;;;;5034040;28;20028;-94
2021/05/07 04:40:32;;;;;;;0.90;0.70;;;;;;;;;;5028817;28;20136;-93
2021/05/07 04:43:01;;;;;;;0.52;0.50;;;;;;;;;;5028851;28;20033;-95
2021/05/07 04:45:28;;;;;;;3.13;0.65;;;12.90;68.20;;;;;;5013877;28;20088;-93
2021/05/07 04:47:54;;;;;;;0.87;0.80;;;;;;;;;;5030132;28;20040;-95
2021/05/07 04:50:20;;;;;;;6.30;1.23;;;;;;;;;;5033352;28;20021;-93
2021/05/07 04:52:46;;;;;;;3.75;1.60;;;;;;;;;;5032130;28;20155;-92
2021/05/07 04:55:12;;;;;;;2.53;1.67;;;;;;;;;;5033162;28;20026;-93
2021/05/07 04:57:38;;;;;;;1.73;1.20;;;;;;;;;;5049125;28;20044;-93
2021/05/07 05:00:04;;;;;;;2.30;1.63;;;;;;;;;;5048374;28;20041;-92
2021/05/07 05:02:30;;;;;;;1.65;0.90;;;;;;;;;;5031734;28;20033;-93
2021/05/07 05:04:57;;;;;;;0.90;0.80;;;;;;;;;;5033321;28;20044;-94
2021/05/07 05:07:23;;;;;;;1.53;0.90;;;;;;;;;;5032799;28;20034;-94
2021/05/07 05:09:49;;;;;;;1.48;1.25;;;;;;;;;;5031807;28;20276;-95
2021/05/07 05:12:15;;;;;;;2.33;1.70;;;;;;;;;;5032948;28;20489;-94
2021/05/07 05:14:41;;;;;;;3.17;1.73;;;;;;;;;;5032899;28;20483;-95
2021/05/07 05:17:07;;;;;;;2.00;1.63;;;;;;;;;;5031759;28;20029;-94
2021/05/07 05:19:33;;;;;;;2.20;1.55;;;;;;;;;;5031849;28;20486;-93
2021/05/07 05:21:59;;;;;;;1.02;0.90;;;;;;;;;;5027799;28;20029;-94
2021/05/07 05:24:25;;;;;;;3.58;1.00;;;;;;;;;;5032862;28;20117;-93
2021/05/07 05:26:51;;;;;;;2.00;1.42;;;;;;;;;;5022650;28;20026;-93
2021/05/07 05:29:17;;;;;;;1.35;0.98;;;;;;;;;;5022999;28;20633;-93
2021/05/07 05:31:43;;;;;;;4.05;0.90;;;;;;;;;;5026764;28;20038;-95
2021/05/07 05:34:09;;;;;;;0.45;0.40;;;;;;;;;;5015071;28;20030;-94
2021/05/07 05:36:35;;;;;;;1.00;0.90;;;;;;;;;;5030968;28;20021;-92
2021/05/07 05:39:02;;;;;;;1.20;0.73;;;;;;;;;;5014870;28;20026;-93
2021/05/07 05:41:27;;;;;;;0.63;0.63;;;;;;;;;;5029507;28;20095;-93
2021/05/07 05:44:14;;;;;;;0.50;0.38;;;;;;;;;;5033049;28;20026;-96
2021/05/07 05:46:40;;;;;;;1.02;0.60;;;;;;;;;;5018445;28;20044;-95
2021/05/07 05:49:10;;;;;;;2.60;1.15;;;;;;;;;;5031796;28;20630;-94
2021/05/07 05:51:36;;;;;;;6.13;1.60;;;;;;;;;;5025993;28;20025;-93
2021/05/07 05:54:03;;;;;;;4.57;3.13;;;;;;;;;;5031416;28;20032;-92
2021/05/07 05:56:29;;;;;;;3.95;2.47;;;;;;;;;;5035204;28;20327;-93
2021/05/07 05:58:55;;;;;;;3.47;1.52;;;;;;;;;;5034064;28;20032;-94
2021/05/07 06:01:21;;;;;;;3.72;1.23;;;;;;;;;;5035739;28;20502;-93
2021/05/07 06:03:47;;;;;;;2.15;1.60;;;;;;;;;;5027722;28;20044;-93
2021/05/07 06:06:15;;;;;;;2.40;1.23;;;;;;;;;;5034235;28;20033;-94
2021/05/07 06:08:41;;;;;;;2.03;1.10;;;;;;;;;;5035727;28;20032;-91
2021/05/07 06:11:08;;;;;;;2.38;0.90;;;;;;;;;;5025870;28;20029;-93
2021/05/07 06:13:34;;;;;;;2.50;1.08;;;;;;;;;;5035177;28;20397;-91
2021/05/07 06:16:00;;;;;;;4.63;1.35;;;;;;;;;;5019028;28;20125;-91
2021/05/07 06:18:26;;;;;;;2.13;1.00;;;;;;;;;;5040316;28;20103;-92
2021/05/07 06:20:52;;;;;;;3.40;1.63;;;;;;;;;;5032801;28;20069;-92
2021/05/07 06:23:18;;;;;;;2.22;1.08;;;;;;;;;;5030168;28;20053;-92
2021/05/07 06:25:44;;;;;;;1.00;0.65;;;;;;;;;;5034224;28;20034;-91
2021/05/07 06:28:10;;;;;;;3.45;1.00;;;;;;;;;;5019218;28;20022;-91
2021/05/07 06:30:36;;;;;;;1.92;1.10;;;;;;;;;;5030615;28;20050;-92
2021/05/07 06:33:03;;;;;;;1.77;1.10;;;;;;;;;;5034155;28;20033;-92
2021/05/07 06:35:29;;;;;;;0.93;0.93;;;;;;;;;;5029914;28;20037;-93
2021/05/07 06:37:57;;;;;;;0.90;0.60;;;;;;;;;;5014402;28;20026;-92
2021/05/07 06:40:23;;;;;;;1.10;0.60;;;;;;;;;;5018940;28;20304;-91
2021/05/07 06:42:49;;;;;;;1.17;0.75;;;;;;;;;;5034129;28;20474;-95
2021/05/07 06:45:15;;;;;;;1.50;0.57;;;;;;;;;;5031516;28;20033;-90
2021/05/07 06:47:41;;;;;;;2.88;1.00;;;;;;;;;;5028181;28;20083;-94
2021/05/07 06:50:08;;;;;;;0.75;0.60;;;;;;;;;;5027568;28;20033;-94
2021/05/07 06:52:34;;;;;;;1.17;0.52;;;;;;;;;;5033044;28;20032;-94
2021/05/07 06:55:00;;;;;;;5.38;0.77;;;;;;;;;;5034098;28;20033;-94
2021/05/07 06:57:27;;;;;;;0.60;0.50;;;;;;;;;;5033973;28;20112;-92
2021/05/07 06:59:53;;;;;;;2.72;0.40;;;;;;;;;;5033676;28;20037;-92
2021/05/07 07:02:19;;;;;;;0.60;0.60;;;;;;;;;;5033473;28;20383;-92
2021/05/07 07:04:48;;;;;;;0.60;0.60;;;;;;;;;;5032247;28;20030;-91
2021/05/07 07:07:15;;;;;;;0.40;0.40;;;;;;;;;;5047280;28;20116;-90
2021/05/07 07:09:41;;;;;;;0.30;0.30;;;;;;;;;;5034070;28;20018;-92
2021/05/07 07:12:08;;;;;;;0.82;0.40;;;;;;;;;;5033759;28;20454;-92
2021/05/07 07:14:38;;;;;;;0.55;0.40;;;;;;;;;;5039995;28;20025;-93
2021/05/07 07:17:04;;;;;;;1.08;0.55;;;;;;;;;;5028993;28;20025;-93
2021/05/07 07:19:30;;;;;;;4.32;0.47;;;;;;;;;;5018467;28;20022;-92
2021/05/07 07:21:56;;;;;;;1.77;0.80;;;;;;;;;;5033911;28;20040;-92
2021/05/07 07:24:29;;;;;;;0.77;0.60;;;;;;;;;;5021563;28;20057;-91
2021/05/07 07:26:56;;;;;;;1.42;0.60;;;;;;;;;;5030517;28;20025;-90
2021/05/07 07:29:22;;;;;;;1.48;0.93;;;;;;;;;;5032055;28;20042;-92
2021/05/07 07:31:48;;;;;;;0.82;0.73;;;;;;;;;;5029455;28;20037;-91
2021/05/07 07:34:14;;;;;;;0.52;0.52;;;;;;;;;;5031832;28;20034;-90
2021/05/07 07:36:47;;;;;;;0.77;0.23;;;;;;;;;;5038332;28;20029;-90
2021/05/07 07:39:14;;;;;;;0.50;0.30;;;;;;;;;;5032433;28;20099;-91
2021/05/07 07:41:40;;;;;;;0.20;0.20;;;;;;;;;;5033147;28;20125;-91
2021/05/07 07:44:06;;;;;;;1.27;0.38;;;;;;;;;;5033448;28;20438;-90
2021/05/07 07:46:32;;;;;;;0.47;0.32;;;;;;;;;;5033245;28;20026;-90
2021/05/07 07:48:58;;;;;;;0.63;0.63;;;;;;;;;;5033067;28;20029;-91
2021/05/07 07:51:34;;;;;;;1.15;1.08;;;;;;;;;;5048828;28;20142;-93
2021/05/07 07:54:02;;;;;;;0.98;0.45;;;;;;;;;;5033496;28;20034;-93
2021/05/07 07:56:31;;;;;;;1.40;0.50;;;;;;;;;;5020846;28;20041;-92
2021/05/07 07:58:57;;;;;;;1.50;0.65;;;;;;;;;;5020979;28;20033;-91
2021/05/07 08:01:23;;;;;;;2.53;0.68;;;;;;;;;;5013782;28;20069;-91
2021/05/07 08:03:49;;;;;;;5.03;1.33;;;;;;;;;;5028090;28;20076;-91
2021/05/07 08:06:15;;;;;;;1.15;0.50;;;;;;;;;;5039593;28;20487;-91
2021/05/07 08:08:42;;;;;;;1.17;0.70;;;;;;;;;;5032280;28;20022;-92
2021/05/07 08:11:08;;;;;;;0.98;0.98;;;;;;;;;;5031510;28;20068;-91
2021/05/07 08:13:34;;;;;;;0.75;0.50;;;;;;;;;;5032373;28;20025;-91
2021/05/07 08:16:00;;;;;;;1.23;0.60;;;;;;;;;;5033355;28;20100;-92
2021/05/07 08:18:26;;;;;;;1.42;0.60;;;;;;;;;;5028030;28;20155;-90
2021/05/07 08:20:52;;;;;;;1.98;0.68;;;;;;;;;;5031577;28;20764;-91
2021/05/07 08:23:18;;;;;;;5.45;0.60;;;;;;;;;;5032860;28;20099;-91
2021/05/07 08:25:44;;;;;;;0.57;0.57;;;;;;;;;;5028556;28;20499;-89
2021/05/07 08:28:10;;;;;;;1.58;0.82;;;;;;;;;;5032707;28;20025;-92
2021/05/07 08:30:36;;;;;;;2.95;0.50;;;;;;;;;;5017347;28;20061;-92
2021/05/07 08:33:02;;;;;;;3.70;0.40;;;;;;;;;;5042117;28;20033;-91
2021/05/07 08:35:28;;;;;;;2.00;0.50;;;;;;;;;;5024533;28;20033;-90
2021/05/07 08:37:54;;;;;;;0.85;0.68;;;;;;;;;;5041019;28;20021;-90
2021/05/07 08:40:20;;;;;;;0.85;0.40;;;;;;;;;;5028081;28;20056;-89
2021/05/07 08:42:47;;;;;;;3.10;0.82;;;;;;;;;;5031848;28;20521;-91
2021/05/07 08:45:13;;;;;;;0.90;0.85;;;;;;;;;;5031721;28;20041;-91
2021/05/07 08:47:40;;;;;;;3.05;0.60;;;;;;;;;;5021320;28;20026;-90
2021/05/07 08:50:07;;;;;;;0.95;0.95;;;;;;;;;;5023053;28;20048;-90
2021/05/07 08:52:37;;;;;;;0.40;0.40;;;;;;;;;;5015701;28;20022;-90
2021/05/07 08:55:05;;;;;;;3.03;0.98;;;;;;;;;;5031089;28;20057;-91
2021/05/07 08:57:35;;;;;;;3.25;0.73;;;;;;;;;;5032314;28;20026;-92
2021/05/07 09:00:01;;;;;;;2.40;0.40;;;;;;;;;;5030471;28;20171;-89
2021/05/07 09:02:28;;;;;;;3.83;0.38;;;;;;;;;;5031260;28;20064;-87
2021/05/07 09:04:55;;;;;;;3.40;0.77;;;;;;;;;;5028907;28;20521;-87
2021/05/07 09:07:22;;;;;;;0.45;0.20;;;;;;;;;;5028900;28;20514;-87
2021/05/07 09:09:50;;;;;;;2.70;1.30;;;21.90;35.60;;;;;;5027555;28;20033;-86
2021/05/07 09:12:37;;;;;;;1.65;0.30;;;21.60;33.50;;;;;;5027845;28;20084;-86
2021/05/07 09:15:05;;;;;;;3.90;0.38;;;20.80;35.10;;;;;;5027604;28;20044;-85
2021/05/07 09:17:33;;;;;;;0.73;0.30;;;;;;;;;;5027803;28;20113;-86
2021/05/07 09:20:33;;;;;;;3.80;0.77;;;20.90;39.40;;;;;;5027899;28;20548;-87
2021/05/07 09:23:03;;;;;;;1.50;0.40;;;22.10;34.80;;;;;;5025669;28;20040;-88
2021/05/07 09:25:29;;;;;;;1.92;0.60;;;;;;;;;;5027778;28;20084;-88
2021/05/07 09:28:14;;;;;;;2.83;0.30;;;23.50;30.80;;;;;;5012952;28;20037;-86
2021/05/07 09:30:41;;;;;;;1.30;0.30;;;24.60;29.30;;;;;;5015840;28;20068;-87
2021/05/07 09:33:12;;;;;;;1.03;0.30;;;24.40;29.50;;;;;;5029686;28;20045;-87
2021/05/07 09:35:38;;;;;;;1.90;0.80;;;;;;;;;;5026403;28;20287;-87
2021/05/07 09:38:08;;;;;;;1.57;0.10;;;;;;;;;;5021852;28;20441;-89
2021/05/07 09:40:35;;;;;;;0.93;0.30;;;;;;;;;;5034579;28;20280;-89
2021/05/07 09:43:13;;;;;;;0.52;0.20;;;24.10;29.00;;;;;;5018546;28;20033;-92
2021/05/07 09:45:41;;;;;;;1.58;0.20;;;24.20;28.10;;;;;;5050324;28;20029;-89
2021/05/07 09:48:21;;;;;;;1.52;0.30;;;24.30;29.80;;;;;;5031485;28;20076;-85
2021/05/07 09:50:48;;;;;;;3.20;0.30;;;23.40;28.80;;;;;;5033762;28;20021;-89
2021/05/07 09:53:20;;;;;;;;;;;22.30;31.40;;;;;;5031184;28;20517;-87
2021/05/07 09:55:48;;;;;;;2.53;0.73;;;22.20;33.20;;;;;;5031626;28;20618;-87
2021/05/07 09:58:14;;;;;;;2.50;0.82;;;;;;;;;;5031189;28;20146;-86
2021/05/07 10:00:40;;;;;;;1.45;0.32;;;;;;;;;;5019163;28;20064;-87
2021/05/07 10:03:06;;;;;;;0.63;0.10;;;;;;;;;;5019923;28;20052;-86
2021/05/07 10:05:35;;;;;;;0.20;0.20;;;;;;;;;;5025007;28;20056;-87
2021/05/07 10:08:01;;;;;;;5.03;0.50;;;;;;;;;;5031310;28;20033;-86
2021/05/07 10:10:30;;;;;;;2.13;1.35;;;24.50;27.70;;;;;;5015641;28;20025;-87
2021/05/07 10:12:59;;;;;;;0.17;0.10;;;23.70;29.10;;;;;;5034389;28;20080;-87
2021/05/07 10:15:30;;;;;;;2.55;0.30;;;23.20;30.30;;;;;;5034845;28;20445;-87
2021/05/07 10:17:56;;;;;;;0.10;0.10;;;;;;;;;;5027457;28;20041;-86
2021/05/07 10:20:40;;;;;;;0.75;0.40;;;21.80;30.00;;;;;;5030816;28;20025;-87
2021/05/07 10:23:20;;;;;;;0.63;0.30;;;20.80;41.40;;;;;;5029593;28;20498;-86
2021/05/07 10:26:00;;;;;;;0.82;0.40;;;;;;;;;;5016962;28;20029;-84
2021/05/07 10:28:28;;;;;;;3.63;0.73;;;19.40;33.40;;;;;;5016627;28;20064;-88
2021/05/07 10:31:07;;;;;;;2.08;0.30;;;;;;;;;;5015459;28;20426;-89
2021/05/07 10:33:33;;;;;;;0.32;0.32;;;;;;;;;;5031281;28;20056;-87
2021/05/07 10:36:00;;;;;;;0.30;0.30;;;;;;;;;;5030624;28;20055;-89
2021/05/07 10:38:26;;;;;;;0.75;0.38;;;;;;;;;;5032092;28;20498;-90
2021/05/07 10:41:10;;;;;;;0.73;0.73;;;19.40;37.00;;;;;;5032680;28;20105;-89
2021/05/07 10:43:40;;;;;;;1.80;0.57;;;19.70;38.10;;;;;;5016680;28;20493;-85
2021/05/07 10:46:07;;;;;;;1.25;0.45;;;20.70;35.60;;;;;;5029648;28;20091;-85
2021/05/07 10:48:33;;;;;;;0.95;0.43;;;;;;;;;;5030464;28;20060;-85
2021/05/07 10:51:13;;;;;;;0.47;0.30;;;20.90;33.70;;;;;;5021419;28;20757;-85
2021/05/07 10:53:39;;;;;;;2.50;0.57;;;;;;;;;;5022803;28;20060;-85
2021/05/07 10:56:35;;;;;;;0.98;0.88;;;19.90;31.00;;;;;;5029948;28;20041;-83
2021/05/07 10:59:10;;;;;;;;;;;20.10;34.20;;;;;;5009563;28;20060;-85
2021/05/07 11:01:36;;;;;;;0.55;0.40;;;;;;;;;;5030354;28;19924;-86
2021/05/07 11:04:03;;;;;;;0.38;0.38;;;19.60;32.50;;;;;;5032142;28;20022;-84
2021/05/07 11:06:30;;;;;;;2.45;0.68;;;;;;;;;;5032711;28;20105;-85
2021/05/07 11:08:56;;;;;;;5.32;0.75;;;;;;;;;;5018469;28;20039;-85
2021/05/07 11:11:22;;;;;;;2.20;1.05;;;;;;;;;;5021772;28;20116;-84
2021/05/07 11:13:48;;;;;;;0.20;0.20;;;;;;;;;;5029879;28;20132;-85
2021/05/07 11:16:14;;;;;;;0.68;0.40;;;;;;;;;;5029461;28;20051;-86
2021/05/07 11:18:46;;;;;;;2.70;1.33;;;;;;;;;;5029846;28;20034;-84
2021/05/07 11:21:12;;;;;;;0.75;0.43;;;;;;;;;;5029557;28;20046;-86
2021/05/07 11:23:38;;;;;;;2.67;0.68;;;;;;;;;;5024834;28;20029;-86
2021/05/07 11:26:05;;;;;;;0.30;0.30;;;19.80;34.80;;;;;;5027635;28;20044;-84
2021/05/07 11:28:40;;;;;;;0.68;0.47;;;19.80;36.80;;;;;;5028915;28;20029;-84
2021/05/07 11:31:06;;;;;;;0.40;0.20;;;;;;;;;;5027566;28;20510;-85
2021/05/07 11:33:31;;;;;;;0.65;0.47;;;;;;;;;;5030632;28;20037;-84
2021/05/07 11:36:09;;;;;;;0.55;0.50;;;19.40;52.40;;;;;;5029483;28;20498;-84
2021/05/07 11:38:36;;;;;;;2.13;0.70;;;19.30;36.00;;;;;;5023043;28;20076;-85
2021/05/07 11:41:02;;;;;;;0.50;0.45;;;19.40;34.40;;;;;;5018408;28;20065;-85
2021/05/07 11:43:28;;;;;;;1.13;0.38;;;;;;;;;;5027515;28;20026;-89
2021/05/07 11:46:08;;;;;;;0.40;0.30;;;19.50;32.50;;;;;;5033116;28;20044;-88
2021/05/07 11:48:35;;;;;;;3.22;0.65;;;;;;;;;;5016869;28;20038;-88
2021/05/07 11:51:07;;;;;;;4.43;0.50;;;;;;;;;;5028249;28;20112;-87
2021/05/07 11:53:34;;;;;;;1.95;0.60;;;19.40;36.40;;;;;;5024233;28;20072;-87
2021/05/07 11:56:00;;;;;;;3.38;0.85;;;;;;;;;;5017895;28;20026;-87
2021/05/07 11:58:33;;;;;;;0.65;0.38;;;19.80;36.50;;;;;;5031012;28;20037;-88
2021/05/07 12:01:00;;;;;;;3.13;1.65;;;;;;;;;;5032870;28;20034;-88
2021/05/07 12:03:41;;;;;;;1.15;1.05;;;19.70;34.20;;;;;;5017950;28;20029;-86
2021/05/07 12:06:28;;;;;;;0.30;0.30;;;19.30;36.20;;;;;;5027129;28;20029;-86
2021/05/07 12:08:55;;;;;;;2.00;0.60;;;;;;;;;;5028374;28;20540;-86
2021/05/07 12:11:21;;;;;;;3.03;1.33;;;;;;;;;;5025542;28;20522;-86
2021/05/07 12:13:48;;;;;;;6.30;0.60;;;18.40;36.70;;;;;;5011953;28;20089;-86
2021/05/07 12:16:14;;;;;;;1.37;0.73;;;;;;;;;;5028499;28;20521;-86
2021/05/07 12:18:49;;;;;;;1.33;0.50;;;18.30;35.40;;;;;;5016201;28;20403;-86
2021/05/07 12:21:15;;;;;;;1.17;1.08;;;;;;;;;;5017272;28;20529;-86
2021/05/07 12:23:46;;;;;;;0.25;0.20;;;18.60;36.50;;;;;;5022846;28;20030;-86
2021/05/07 12:26:12;;;;;;;0.88;0.50;;;19.00;34.60;;;;;;5026768;28;20034;-86
2021/05/07 12:28:39;;;;;;;0.37;0.30;;;19.20;35.60;;;;;;5013753;28;20096;-87
2021/05/07 12:31:07;;;;;;;0.40;0.30;;;19.30;37.60;;;;;;5040871;28;20087;-86
2021/05/07 12:33:37;;;;;;;1.55;0.47;;;;;;;;;;5023481;28;20116;-85
2021/05/07 12:36:15;;;;;;;3.60;1.10;;;19.10;38.00;;;;;;5019807;28;20042;-86
2021/05/07 12:38:41;;;;;;;0.63;0.63;;;;;;;;;;5022790;28;20022;-85
2021/05/07 12:41:12;;;;;;;0.57;0.52;;;18.60;38.70;;;;;;5028281;28;20037;-86
2021/05/07 12:43:43;;;;;;;5.88;0.40;;;18.20;37.90;;;;;;5028492;28;20025;-85
2021/05/07 12:46:11;;;;;;;2.63;0.40;;;18.10;38.10;;;;;;5012573;28;20423;-86
2021/05/07 12:48:37;;;;;;;0.30;0.30;;;;;;;;;;5013883;28;20112;-86
2021/05/07 12:51:08;;;;;;;3.60;0.93;;;18.50;35.60;;;;;;5025423;28;20101;-86
2021/05/07 12:53:34;;;;;;;0.35;0.35;;;18.60;35.80;;;;;;5037601;28;20026;-87
2021/05/07 12:56:00;;;;;;;0.88;0.88;;;18.50;33.90;;;;;;5026956;28;20056;-86
2021/05/07 12:58:27;;;;;;;0.52;0.43;;;;;;;;;;5012310;28;20041;-86
2021/05/07 13:00:53;;;;;;;0.38;0.30;;;;;;;;;;5029909;28;20029;-90
2021/05/07 13:03:19;;;;;;;0.28;0.28;;;;;;;;;;5030543;28;20033;-82
2021/05/07 13:05:46;;;;;;;0.40;0.40;;;18.70;32.10;;;;;;5027216;28;20067;-80
2021/05/07 13:08:12;;;;;;;3.42;0.88;;;;;;;;;;5026880;28;20033;-82
2021/05/07 13:10:39;;;;;;;1.20;0.57;;;18.10;40.50;;;;;;5029166;28;20095;-90
2021/05/07 13:13:05;;;;;;;0.95;0.38;;;;;;;;;;5031147;28;20033;-90
2021/05/07 13:15:31;;;;;;;1.73;0.93;;;;;;;;;;5030217;28;20026;-92
2021/05/07 13:17:57;;;;;;;1.52;0.40;;;;;;;;;;5029296;28;20044;-88
2021/05/07 13:20:25;;;;;;;0.30;0.30;;;18.00;38.00;;;;;;5030007;28;20115;-87
2021/05/07 13:22:51;;;;;;;;;;;18.20;38.20;;;;;;5029786;28;20029;-89
2021/05/07 13:25:18;;;;;;;0.95;0.52;;;18.00;38.80;;;;;;5029644;28;19992;-89
2021/05/07 13:27:52;;;;;;;2.40;0.40;;;17.80;37.80;;;;;;5016104;28;20051;-87
2021/05/07 13:30:22;;;;;;;2.20;0.50;;;17.70;37.80;;;;;;5028382;28;20058;-88
2021/05/07 13:32:48;;;;;;;0.77;0.30;;;;;;;;;;5035899;28;20071;-86
2021/05/07 13:35:15;;;;;;;6.53;0.50;;;17.60;38.30;;;;;;5037540;28;20033;-88
2021/05/07 13:37:43;;;;;;;4.40;0.50;;;;;;;;;;5029180;28;20030;-89
2021/05/07 13:40:09;;;;;;;0.90;0.40;;;;;;;;;;5030613;28;20367;-89
2021/05/07 13:42:35;;;;;;;0.43;0.40;;;;;;;;;;5029808;28;20065;-89
2021/05/07 13:45:02;;;;;;;1.17;0.30;;;;;;;;;;5021450;28;20499;-89
2021/05/07 13:47:28;;;;;;;0.30;0.30;;;;;;;;;;5016040;28;20033;-89
2021/05/07 13:49:54;;;;;;;1.02;0.65;;;;;;;;;;5029212;28;20037;-90
2021/05/07 13:52:20;;;;;;;1.05;0.38;;;;;;;;;;5012141;28;20025;-89
2021/05/07 13:54:46;;;;;;;2.65;0.20;;;;;;;;;;5030736;28;20032;-88
2021/05/07 13:57:12;;;;;;;1.35;0.50;;;;;;;;;;5029018;28;20436;-88
2021/05/07 13:59:38;;;;;;;0.30;0.30;;;;;;;;;;5026633;28;20022;-87
2021/05/07 14:02:04;;;;;;;1.80;0.60;;;;;;;;;;5026015;28;20145;-89
2021/05/07 14:04:30;;;;;;;0.40;0.30;;;;;;;;;;5025787;28;20029;-91
2021/05/07 14:06:56;;;;;;;1.35;0.45;;;;;;;;;;5027171;28;20025;-87
2021/05/07 14:09:22;;;;;;;1.02;0.55;;;;;;;;;;5023608;28;20018;-85
2021/05/07 14:11:50;;;;;;;0.35;0.35;;;;;;;;;;5025921;28;20030;-87
2021/05/07 14:14:16;;;;;;;0.20;0.20;;;;;;;;;;5016892;28;20116;-86
2021/05/07 14:16:43;;;;;;;0.82;0.30;;;18.40;38.80;;;;;;5028199;28;20112;-86
2021/05/07 14:19:12;;;;;;;;;;;18.50;37.40;;;;;;5028504;28;20029;-85